Time;durP1;ratioP1;P1;durP2;ratioP2;P2;SDS_P1;SDS_P2;PMS_P1;PMS_P2;Temp;Humidity;BMP_temperature;BMP_pressure;BME280_temperature;BME280_humidity;BME280_pressure;Samples;Min_cycle;Max_cycle;Signal;HPM_P1;HPM_P2
2023/09/26 00:00:13;;;;;;;6.65;4.55;;;;;;;16.49;100.00;102127.38;5044374;28;20040;-76
2023/09/26 00:02:39;;;;;;;7.88;5.00;;;;;;;16.44;100.00;102122.88;5038830;28;20177;-76
2023/09/26 00:05:07;;;;;;;7.40;4.40;;;;;;;16.42;100.00;102126.09;5039295;28;20033;-76
2023/09/26 00:07:32;;;;;;;7.60;4.60;;;;;;;16.37;100.00;102117.97;5047473;28;20040;-76
2023/09/26 00:09:58;;;;;;;6.78;4.43;;;;;;;16.35;100.00;102114.72;5039128;28;20039;-76
2023/09/26 00:12:23;;;;;;;7.00;4.18;;;;;;;16.32;100.00;102126.81;5044680;28;20053;-76
2023/09/26 00:14:48;;;;;;;7.28;4.57;;;;;;;16.29;100.00;102124.75;5029230;28;20116;-76
2023/09/26 00:17:17;;;;;;;6.72;4.88;;;;;;;16.26;100.00;102128.34;5045990;28;20067;-77
2023/09/26 00:19:42;;;;;;;9.27;5.70;;;;;;;16.25;100.00;102129.53;5047310;28;20040;-76
2023/09/26 00:22:08;;;;;;;8.30;4.95;;;;;;;16.22;100.00;102125.47;5042706;28;20028;-76
2023/09/26 00:24:33;;;;;;;8.38;4.45;;;;;;;16.20;100.00;102127.88;5043463;28;20116;-77
2023/09/26 00:26:58;;;;;;;5.78;4.40;;;;;;;16.17;100.00;102127.81;5051087;28;20112;-77
2023/09/26 00:29:24;;;;;;;7.43;4.80;;;;;;;16.17;100.00;102128.66;5049390;28;20104;-77
2023/09/26 00:31:53;;;;;;;8.68;4.90;;;;;;;16.14;100.00;102120.94;5031540;28;20060;-76
2023/09/26 00:34:19;;;;;;;7.90;4.70;;;;;;;16.10;100.00;102124.94;5049753;28;20029;-77
2023/09/26 00:36:45;;;;;;;7.95;4.85;;;;;;;16.09;100.00;102126.97;5045374;28;20065;-76
2023/09/26 00:39:11;;;;;;;7.57;4.20;;;;;;;16.08;100.00;102118.84;5046252;28;20549;-77
2023/09/26 00:41:38;;;;;;;7.30;4.75;;;;;;;16.05;100.00;102126.09;5047064;28;20029;-75
2023/09/26 00:44:04;;;;;;;7.55;4.85;;;;;;;16.03;100.00;102123.66;5056985;28;20032;-76
2023/09/26 00:46:29;;;;;;;6.20;4.55;;;;;;;16.00;100.00;102123.59;5045053;28;20044;-76
2023/09/26 00:48:56;;;;;;;6.70;5.05;;;;;;;15.96;100.00;102115.09;5045351;28;20624;-73
2023/09/26 00:51:21;;;;;;;9.20;5.82;;;;;;;15.96;100.00;102114.28;5048984;28;20037;-74
2023/09/26 00:53:47;;;;;;;7.97;5.13;;;;;;;15.93;100.00;102100.94;5046422;28;20032;-74
2023/09/26 00:56:12;;;;;;;7.78;5.00;;;;;;;15.90;100.00;102090.44;5050027;28;20029;-73
2023/09/26 00:58:40;;;;;;;7.15;4.70;;;;;;;15.90;100.00;102091.22;5050017;28;20025;-72
2023/09/26 01:01:07;;;;;;;7.47;5.45;;;;;;;15.88;100.00;102098.47;5049038;28;20433;-72
2023/09/26 01:03:33;;;;;;;9.95;5.35;;;;;;;15.88;100.00;102087.97;5046999;28;20409;-73
2023/09/26 01:05:59;;;;;;;7.15;5.30;;;;;;;15.85;100.00;102088.72;5045071;28;20037;-72
2023/09/26 01:08:25;;;;;;;9.25;5.63;;;;;;;15.82;100.00;102095.97;5046260;28;20507;-72
2023/09/26 01:10:50;;;;;;;8.15;5.65;;;;;;;15.80;100.00;102092.72;5048438;28;20507;-72
2023/09/26 01:13:16;;;;;;;9.57;5.80;;;;;;;15.78;100.00;102099.94;5047388;28;20040;-72
2023/09/26 01:15:43;;;;;;;10.45;6.25;;;;;;;15.76;100.00;102096.69;5050290;28;20324;-72
2023/09/26 01:18:11;;;;;;;11.13;6.32;;;;;;;15.70;100.00;102092.56;5047355;28;20036;-72
2023/09/26 01:20:43;;;;;;;10.10;6.13;;;;;;;15.69;100.00;102090.94;5049636;28;20114;-72
2023/09/26 01:23:10;;;;;;;12.48;6.75;;;;;;;15.67;100.00;102098.97;5048940;28;20039;-72
2023/09/26 01:25:36;;;;;;;9.98;5.43;;;;;;;15.62;100.00;102094.47;5049903;28;20031;-72
2023/09/26 01:28:07;;;;;;;9.63;6.55;;;;;;;15.63;100.00;102085.63;5048428;28;20400;-74
2023/09/26 01:30:39;;;;;;;6.78;5.20;;;;;;;15.64;100.00;102083.59;5048146;28;20037;-74
2023/09/26 01:33:11;;;;;;;9.43;6.00;;;;;;;15.61;100.00;102085.19;5045759;28;20035;-73
2023/09/26 01:35:36;;;;;;;9.70;6.13;;;;;;;15.59;100.00;102078.31;5045943;28;20438;-72
2023/09/26 01:38:02;;;;;;;8.93;5.97;;;;;;;15.56;100.00;102088.38;5048624;28;20435;-73
2023/09/26 01:40:27;;;;;;;9.82;5.38;;;;;;;15.53;100.00;102083.47;5046238;28;20117;-73
2023/09/26 01:42:53;;;;;;;8.88;5.57;;;;;;;15.51;100.00;102079.41;5043227;28;20090;-72
2023/09/26 01:45:18;;;;;;;8.90;6.82;;;;;;;15.48;100.00;102083.81;5048265;28;20055;-73
2023/09/26 01:47:47;;;;;;;9.18;6.10;;;;;;;15.47;100.00;102090.63;5044591;28;20033;-74
2023/09/26 01:50:13;;;;;;;8.40;5.72;;;;;;;15.47;100.00;102090.63;5048412;28;20040;-72
2023/09/26 01:52:38;;;;;;;7.85;5.95;;;;;;;15.46;100.00;102094.66;5047697;28;20040;-71
2023/09/26 01:55:06;;;;;;;9.23;6.18;;;;;;;15.43;100.00;102101.06;5045557;28;20024;-72
2023/09/26 01:57:34;;;;;;;7.13;6.20;;;;;;;15.41;100.00;102097.81;5046463;28;20033;-73
2023/09/26 02:00:20;;;;;;;7.32;6.07;;;;;;;15.39;100.00;102101.03;5048264;28;20029;-74
2023/09/26 02:02:47;;;;;;;9.73;5.85;;;;;;;15.36;100.00;102095.34;5043715;28;20045;-73
2023/09/26 02:05:15;;;;;;;10.43;5.85;;;;;;;15.36;100.00;102090.50;5024134;28;20079;-74
2023/09/26 02:07:41;;;;;;;9.48;6.13;;;;;;;15.30;100.00;102085.56;5048852;28;20071;-73
2023/09/26 02:10:07;;;;;;;9.52;6.53;;;;;;;15.29;100.00;102095.25;5049639;28;20501;-72
2023/09/26 02:12:37;;;;;;;7.07;5.32;;;;;;;15.28;100.00;102087.97;5045620;28;20041;-74
2023/09/26 02:15:08;;;;;;;9.35;6.75;;;;;;;15.25;100.00;102092.38;5041013;28;20112;-72
2023/09/26 02:17:35;;;;;;;8.52;5.85;;;;;;;15.27;100.00;102081.50;5042371;28;20068;-73
2023/09/26 02:20:01;;;;;;;7.47;5.45;;;;;;;15.25;100.00;102083.91;5048971;28;20033;-72
2023/09/26 02:22:27;;;;;;;9.15;5.70;;;;;;;15.24;100.00;102082.25;5046322;28;20029;-73
2023/09/26 02:24:52;;;;;;;9.70;6.05;;;;;;;15.22;100.00;102082.66;5047927;28;20848;-72
2023/09/26 02:27:18;;;;;;;10.82;6.63;;;;;;;15.19;100.00;102074.94;5043551;28;20071;-72
2023/09/26 02:29:44;;;;;;;8.13;6.05;;;;;;;15.19;100.00;102083.41;5048497;28;20223;-73
2023/09/26 02:32:10;;;;;;;10.10;6.50;;;;;;;15.16;100.00;102080.56;5045100;28;20036;-72
2023/09/26 02:34:36;;;;;;;8.20;6.18;;;;;;;15.15;100.00;102079.72;5045509;28;20037;-72
2023/09/26 02:37:01;;;;;;;9.52;6.22;;;;;;;15.17;100.00;102071.69;5046756;28;20037;-73
2023/09/26 02:39:28;;;;;;;9.65;6.70;;;;;;;15.15;100.00;102068.44;5025954;28;20436;-72
2023/09/26 02:41:53;;;;;;;8.65;6.35;;;;;;;15.14;100.00;102071.66;5049094;28;20021;-72
2023/09/26 02:44:18;;;;;;;9.23;6.78;;;;;;;15.14;100.00;102075.28;5043771;28;20039;-74
2023/09/26 02:46:43;;;;;;;11.60;7.45;;;;;;;15.12;100.00;102074.84;5045787;28;20017;-72
2023/09/26 02:49:09;;;;;;;12.23;8.35;;;;;;;15.08;100.00;102068.34;5046205;28;20037;-73
2023/09/26 02:51:34;;;;;;;11.32;7.25;;;;;;;15.03;100.00;102071.47;5047131;28;20067;-73
2023/09/26 02:54:00;;;;;;;12.32;7.88;;;;;;;15.05;100.00;102083.19;5046283;28;20029;-72
2023/09/26 02:56:25;;;;;;;10.77;7.65;;;;;;;15.01;100.00;102073.88;5047698;28;20068;-72
2023/09/26 02:58:51;;;;;;;9.45;7.80;;;;;;;15.00;100.00;102077.88;5046623;28;20488;-72
2023/09/26 03:01:17;;;;;;;10.63;7.53;;;;;;;14.95;100.00;102069.78;5046505;28;20052;-72
2023/09/26 03:03:42;;;;;;;9.68;7.25;;;;;;;14.95;100.00;102062.13;5046198;28;20400;-72
2023/09/26 03:06:08;;;;;;;10.45;7.75;;;;;;;14.92;100.00;102059.22;5047739;28;20112;-72
2023/09/26 03:08:33;;;;;;;9.93;7.38;;;;;;;14.91;100.00;102049.16;5045037;28;20467;-76
2023/09/26 03:10:59;;;;;;;11.85;7.63;;;;;;;14.93;100.00;102049.59;5047368;28;20021;-76
2023/09/26 03:13:24;;;;;;;10.90;8.32;;;;;;;14.88;100.00;102047.09;5046026;28;20040;-75
2023/09/26 03:15:56;;;;;;;10.77;8.68;;;;;;;14.91;100.00;102040.72;5045917;28;20041;-75
2023/09/26 03:18:21;;;;;;;10.73;8.43;;;;;;;14.87;100.00;102037.03;5040610;28;20060;-76
2023/09/26 03:20:47;;;;;;;11.82;8.30;;;;;;;14.88;100.00;102033.00;5048316;28;20053;-77
2023/09/26 03:23:13;;;;;;;12.52;8.43;;;;;;;14.85;100.00;102031.75;5039790;28;20037;-77
2023/09/26 03:25:38;;;;;;;13.10;9.02;;;;;;;14.81;100.00;102026.06;5039935;28;20481;-76
2023/09/26 03:28:04;;;;;;;10.43;7.72;;;;;;;14.79;100.00;102030.44;5043381;28;20125;-77
2023/09/26 03:30:29;;;;;;;13.18;9.60;;;;;;;14.77;100.00;102035.66;5044853;28;20468;-76
2023/09/26 03:32:54;;;;;;;14.40;9.52;;;;;;;14.76;100.00;102048.94;5045001;28;20468;-76
2023/09/26 03:35:20;;;;;;;13.00;9.25;;;;;;;14.73;100.00;102048.88;5045596;28;20075;-77
2023/09/26 03:37:45;;;;;;;9.63;8.02;;;;;;;14.72;100.00;102036.78;5040447;28;20074;-76
2023/09/26 03:40:11;;;;;;;12.98;9.27;;;;;;;14.68;100.00;102033.09;5046250;28;20525;-76
2023/09/26 03:42:36;;;;;;;12.63;8.48;;;;;;;14.69;100.00;102040.34;5043775;28;20083;-76
2023/09/26 03:45:02;;;;;;;13.35;9.38;;;;;;;14.69;100.00;102031.91;5043878;28;20381;-76
2023/09/26 03:47:28;;;;;;;15.30;9.43;;;;;;;14.64;100.00;102035.03;5042006;28;20396;-76
2023/09/26 03:49:54;;;;;;;15.43;8.85;;;;;;;14.67;100.00;102025.00;5044073;28;20036;-77
2023/09/26 03:52:19;;;;;;;16.17;10.60;;;;;;;14.60;100.00;102023.72;5046822;28;20025;-76
2023/09/26 03:54:44;;;;;;;14.43;9.40;;;;;;;14.62;100.00;102028.97;5043279;28;20032;-75
2023/09/26 03:57:10;;;;;;;13.27;9.60;;;;;;;14.57;100.00;102015.22;5043975;28;20123;-76
2023/09/26 03:59:35;;;;;;;16.20;9.57;;;;;;;14.57;100.00;102020.84;5046590;28;20546;-76
2023/09/26 04:02:00;;;;;;;13.93;10.68;;;;;;;14.57;100.00;102010.41;5044449;28;20595;-76
2023/09/26 04:04:26;;;;;;;13.80;10.18;;;;;;;14.59;100.00;102018.47;5038158;28;20593;-76
2023/09/26 04:06:51;;;;;;;12.32;8.90;;;;;;;14.52;100.00;102007.03;5030342;28;20044;-76
2023/09/26 04:09:17;;;;;;;13.32;10.35;;;;;;;14.42;100.00;102003.69;5045954;28;20059;-77
2023/09/26 04:11:42;;;;;;;20.55;11.20;;;;;;;14.48;100.00;102011.81;5040093;28;20079;-76
2023/09/26 04:14:07;;;;;;;14.48;9.70;;;;;;;14.53;100.00;102017.13;5044971;28;20060;-76
2023/09/26 04:16:33;;;;;;;16.00;9.93;;;;;;;14.42;100.00;102009.31;5045946;28;20087;-77
2023/09/26 04:18:58;;;;;;;11.98;9.32;;;;;;;14.41;100.00;102013.31;5044123;28;20029;-74
2023/09/26 04:21:23;;;;;;;15.60;10.65;;;;;;;14.55;100.00;102023.22;5044379;28;20029;-73
2023/09/26 04:23:48;;;;;;;15.18;9.98;;;;;;;14.54;100.00;102021.56;5031101;28;20032;-73
2023/09/26 04:26:15;;;;;;;17.30;11.73;;;;;;;14.53;100.00;102025.59;5043433;28;20048;-73
2023/09/26 04:28:45;;;;;;;15.77;10.90;;;;;;;14.43;100.00;102010.13;5046197;28;20032;-76
2023/09/26 04:31:16;;;;;;;13.70;9.95;;;;;;;14.50;100.00;102017.88;5045424;28;20396;-76
2023/09/26 04:33:42;;;;;;;15.02;9.68;;;;;;;14.53;100.00;102014.31;5042225;28;20028;-76
2023/09/26 04:36:08;;;;;;;14.98;11.02;;;;;;;14.52;100.00;102012.69;5040314;28;20550;-76
2023/09/26 04:38:33;;;;;;;14.52;9.60;;;;;;;14.51;100.00;102005.44;5045200;28;20032;-76
2023/09/26 04:41:03;;;;;;;18.25;10.63;;;;;;;14.48;100.00;102006.16;5047252;28;20021;-76
2023/09/26 04:43:32;;;;;;;15.63;10.43;;;;;;;14.44;100.00;101994.84;5043830;28;20123;-76
2023/09/26 04:45:57;;;;;;;14.35;11.27;;;;;;;14.44;100.00;101998.47;5021581;28;20405;-76
2023/09/26 04:48:23;;;;;;;17.88;11.43;;;;;;;14.43;100.00;102010.94;5027422;28;20029;-76
2023/09/26 04:50:49;;;;;;;13.90;10.52;;;;;;;14.41;100.00;102013.31;5043067;28;20041;-76
2023/09/26 04:53:14;;;;;;;13.25;10.02;;;;;;;14.41;100.00;102012.50;5046847;28;20048;-77
2023/09/26 04:55:41;;;;;;;19.60;11.55;;;;;;;14.39;100.00;102003.63;5045439;28;20029;-76
2023/09/26 04:58:08;;;;;;;16.33;10.20;;;;;;;14.30;100.00;101998.25;5042931;28;20059;-76
2023/09/26 05:00:34;;;;;;;16.40;11.02;;;;;;;14.35;100.00;101997.91;5039492;28;20036;-76
2023/09/26 05:03:00;;;;;;;16.15;11.18;;;;;;;14.29;100.00;102004.25;5041151;28;20099;-75
2023/09/26 05:05:25;;;;;;;17.15;10.88;;;;;;;14.29;100.00;101999.41;5043089;28;20045;-76
2023/09/26 05:07:50;;;;;;;18.05;10.38;;;;;;;14.25;100.00;101981.66;5039388;28;20041;-76
2023/09/26 05:10:16;;;;;;;12.48;9.85;;;;;;;14.30;100.00;101995.44;5036729;28;20038;-76
2023/09/26 05:12:42;;;;;;;17.58;10.65;;;;;;;14.29;100.00;101993.78;5046043;28;20108;-76
2023/09/26 05:15:12;;;;;;;15.93;12.05;;;;;;;14.20;100.00;101990.41;5040283;28;20106;-76
2023/09/26 05:17:45;;;;;;;15.52;11.27;;;;;;;14.13;100.00;101993.13;5043055;28;20389;-76
2023/09/26 05:20:11;;;;;;;18.88;10.73;;;;;;;14.15;100.00;102002.00;5046284;28;20110;-77
2023/09/26 05:22:42;;;;;;;15.13;10.43;;;;;;;14.10;100.00;101999.50;5046029;28;20069;-76
2023/09/26 05:25:08;;;;;;;15.07;10.57;;;;;;;14.15;100.00;101996.38;5039756;28;20024;-76
2023/09/26 05:27:34;;;;;;;12.65;8.90;;;;;;;14.28;100.00;101991.38;5041126;28;20599;-73
2023/09/26 05:29:59;;;;;;;14.73;10.02;;;;;;;14.23;100.00;101989.69;5039957;28;20025;-74
2023/09/26 05:32:25;;;;;;;17.17;9.95;;;;;;;14.08;100.00;101987.78;5041084;28;20410;-74
2023/09/26 05:34:50;;;;;;;17.88;11.57;;;;;;;13.83;100.00;101993.78;5042926;28;20040;-72
2023/09/26 05:37:16;;;;;;;13.70;9.55;;;;;;;13.93;100.00;101998.78;5042251;28;20119;-72
2023/09/26 05:39:42;;;;;;;16.45;10.50;;;;;;;14.02;100.00;101999.38;5044922;28;20032;-76
2023/09/26 05:42:10;;;;;;;17.88;10.93;;;;;;;13.87;100.00;101999.47;5043074;28;20105;-76
2023/09/26 05:44:35;;;;;;;14.18;9.73;;;;;;;13.91;100.00;101984.28;5042638;28;20028;-75
2023/09/26 05:47:00;;;;;;;12.98;9.85;;;;;;;13.94;100.00;101991.19;5041349;28;20139;-76
2023/09/26 05:49:26;;;;;;;15.95;10.95;;;;;;;13.83;100.00;101993.78;5025600;28;20994;-76
2023/09/26 05:51:51;;;;;;;15.70;10.82;;;;;;;14.02;100.00;102007.81;5043745;28;20156;-76
2023/09/26 05:54:17;;;;;;;15.55;10.02;;;;;;;14.01;100.00;102009.00;5043195;28;20064;-76
2023/09/26 05:56:44;;;;;;;14.73;9.95;;;;;;;13.81;100.00;102001.81;5045038;28;20107;-76
2023/09/26 05:59:09;;;;;;;17.23;10.60;;;;;;;13.76;100.00;101999.28;5043396;28;20044;-76
2023/09/26 06:01:35;;;;;;;18.80;11.23;;;;;;;13.78;100.00;101996.91;5020973;28;20755;-74
2023/09/26 06:04:00;;;;;;;16.15;10.68;;;;;;;13.60;100.00;102000.19;5037291;28;20572;-74
2023/09/26 06:06:25;;;;;;;15.63;11.48;;;;;;;13.80;100.00;101997.34;5036616;28;20053;-75
2023/09/26 06:08:51;;;;;;;16.83;11.30;;;;;;;13.78;100.00;101992.06;5035555;28;20029;-75
2023/09/26 06:11:16;;;;;;;16.55;11.73;;;;;;;13.59;100.00;101992.91;5033628;28;20478;-75
2023/09/26 06:13:43;;;;;;;15.73;9.80;;;;;;;13.75;100.00;101989.22;5039275;28;20082;-76
2023/09/26 06:16:09;;;;;;;18.83;11.65;;;;;;;13.85;100.00;101987.78;5043384;28;20032;-75
2023/09/26 06:18:34;;;;;;;17.88;10.20;;;;;;;13.93;100.00;101995.97;5039194;28;20724;-75
2023/09/26 06:21:04;;;;;;;15.25;9.75;;;;;;;13.89;100.00;102003.53;5045041;28;20024;-75
2023/09/26 06:23:31;;;;;;;15.93;10.63;;;;;;;13.97;100.00;102010.13;5037828;28;20362;-75
2023/09/26 06:26:00;;;;;;;16.83;10.25;;;;;;;14.05;100.00;102005.44;5032299;28;20064;-75
2023/09/26 06:28:26;;;;;;;16.65;10.63;;;;;;;13.94;100.00;102008.88;5033730;28;20032;-76
2023/09/26 06:30:51;;;;;;;12.05;9.45;;;;;;;13.98;100.00;102009.75;5023077;28;20029;-75
2023/09/26 06:33:16;;;;;;;11.65;8.55;;;;;;;14.05;100.00;102011.06;5040181;28;20157;-75
2023/09/26 06:35:42;;;;;;;13.88;9.45;;;;;;;14.10;100.00;102020.00;5040822;28;20028;-76
2023/09/26 06:38:08;;;;;;;14.38;10.02;;;;;;;14.21;100.00;102014.59;5037660;28;20389;-77
2023/09/26 06:40:33;;;;;;;16.40;9.40;;;;;;;14.27;100.00;102015.88;5042541;28;20037;-78
2023/09/26 06:43:00;;;;;;;15.68;8.82;;;;;;;14.32;100.00;102009.94;5040966;28;20078;-78
2023/09/26 06:45:27;;;;;;;17.50;11.55;;;;;;;14.13;100.00;102010.03;5038887;28;20061;-77
2023/09/26 06:47:53;;;;;;;16.90;8.85;;;;;;;14.27;100.00;102018.69;5026742;28;20064;-77
2023/09/26 06:50:18;;;;;;;12.50;8.40;;;;;;;14.20;100.00;102013.75;5038657;28;20113;-78
2023/09/26 06:52:44;;;;;;;13.68;9.32;;;;;;;14.26;100.00;102016.28;5037843;28;20078;-77
2023/09/26 06:55:12;;;;;;;15.68;8.88;;;;;;;14.31;100.00;102011.13;5040847;28;20029;-76
2023/09/26 06:57:37;;;;;;;14.40;9.82;;;;;;;14.20;100.00;102007.31;5042892;28;20148;-77
2023/09/26 07:00:11;;;;;;;13.88;9.80;;;;;;;14.15;100.00;102016.09;5041913;28;20165;-77
2023/09/26 07:02:36;;;;;;;18.40;11.45;;;;;;;13.98;100.00;102001.31;5041671;28;20049;-77
2023/09/26 07:05:02;;;;;;;14.23;9.40;;;;;;;14.00;100.00;102004.56;5039878;28;20793;-77
2023/09/26 07:07:31;;;;;;;19.65;10.02;;;;;;;14.12;100.00;102009.19;5042953;28;20037;-77
2023/09/26 07:09:56;;;;;;;14.73;10.25;;;;;;;14.00;100.00;102012.19;5037881;28;20477;-76
2023/09/26 07:12:22;;;;;;;16.90;10.25;;;;;;;14.07;100.00;101995.44;5042278;28;20064;-76
2023/09/26 07:14:47;;;;;;;14.60;9.90;;;;;;;14.11;100.00;102004.75;5045858;28;20447;-76
2023/09/26 07:17:13;;;;;;;17.98;11.57;;;;;;;14.11;100.00;101999.13;5043353;28;20047;-76
2023/09/26 07:19:38;;;;;;;18.45;10.00;;;;;;;14.20;100.00;101979.97;5039307;28;20028;-76
2023/09/26 07:22:03;;;;;;;17.77;12.27;;;;;;;14.12;100.00;101983.84;5041355;28;20025;-76
2023/09/26 07:24:29;;;;;;;17.55;11.02;;;;;;;14.13;100.00;101995.94;5041135;28;20086;-76
2023/09/26 07:26:54;;;;;;;18.92;11.68;;;;;;;14.22;100.00;101993.69;5042703;28;20083;-76
2023/09/26 07:29:20;;;;;;;17.33;10.68;;;;;;;14.25;100.00;101992.91;5042758;28;20037;-76
2023/09/26 07:31:46;;;;;;;15.07;10.57;;;;;;;14.22;100.00;101999.31;5039967;28;20040;-75
2023/09/26 07:34:11;;;;;;;21.42;11.55;;;;;;;14.25;100.00;101987.28;5041963;28;20043;-76
2023/09/26 07:36:36;;;;;;;17.90;11.73;;;;;;;14.29;100.00;102005.03;5039042;28;20487;-75
2023/09/26 07:39:03;;;;;;;14.13;10.65;;;;;;;14.36;100.00;101999.56;5042692;28;20022;-76
2023/09/26 07:41:29;;;;;;;15.27;10.13;;;;;;;14.43;100.00;101999.66;5042313;28;20028;-76
2023/09/26 07:43:54;;;;;;;14.40;10.48;;;;;;;14.46;100.00;102009.34;5041056;28;20397;-76
2023/09/26 07:46:20;;;;;;;17.00;10.98;;;;;;;14.54;100.00;102018.75;5025615;28;20116;-77
2023/09/26 07:48:45;;;;;;;16.60;11.18;;;;;;;14.58;100.00;102006.38;5042602;28;20025;-75
2023/09/26 07:51:11;;;;;;;17.58;10.90;;;;;;;14.60;100.00;101998.34;5037495;28;20060;-74
2023/09/26 07:53:36;;;;;;;17.90;10.70;;;;;;;14.55;100.00;101995.03;5038721;28;20188;-74
2023/09/26 07:56:02;;;;;;;15.57;10.40;;;;;;;14.68;100.00;101999.28;5037739;28;20112;-75
2023/09/26 07:58:28;;;;;;;14.18;10.10;;;;;;;14.75;100.00;102001.41;5042164;28;20025;-73
2023/09/26 08:00:54;;;;;;;15.32;9.93;;;;;;;14.85;100.00;102003.56;5034928;28;20620;-74
2023/09/26 08:03:20;;;;;;;19.25;10.10;;;;;;;14.89;100.00;102001.63;5028321;28;20140;-74
2023/09/26 08:05:45;;;;;;;19.85;11.45;;;;;;;14.97;100.00;101997.72;5020059;28;20045;-73
2023/09/26 08:08:11;;;;;;;13.65;9.55;;;;;;;15.04;100.00;101988.53;5020678;28;20665;-73
2023/09/26 08:10:38;;;;;;;15.75;11.05;;;;;;;15.09;100.00;101996.66;5020830;28;20670;-72
2023/09/26 08:13:04;;;;;;;12.80;10.02;;;;;;;15.09;100.00;101999.47;5021681;28;20599;-73
2023/09/26 08:15:31;;;;;;;17.98;11.05;;;;;;;15.15;100.00;101989.47;5025783;28;20044;-73
2023/09/26 08:18:06;;;;;;;17.23;11.75;;;;;;;15.21;100.00;101998.44;5019732;28;20491;-73
2023/09/26 08:20:31;;;;;;;15.57;10.75;;;;;;;15.30;100.00;101996.13;5016089;28;20033;-73
2023/09/26 08:22:57;;;;;;;15.23;10.63;;;;;;;15.31;100.00;102002.59;5024637;28;20035;-73
2023/09/26 08:25:22;;;;;;;18.27;10.80;;;;;;;15.30;100.00;101984.03;5024307;28;20161;-73
2023/09/26 08:27:48;;;;;;;15.60;10.73;;;;;;;15.36;100.00;101993.78;5022885;28;20064;-73
2023/09/26 08:30:13;;;;;;;21.75;10.90;;;;;;;15.40;100.00;101997.47;5022221;28;20393;-73
2023/09/26 08:32:39;;;;;;;15.10;11.07;;;;;;;15.45;100.00;101997.09;5023533;28;20509;-73
2023/09/26 08:35:06;;;;;;;17.33;11.10;;;;;;;15.51;100.00;101992.75;5018854;28;20110;-75
2023/09/26 08:37:33;;;;;;;16.30;11.68;;;;;;;15.53;100.00;101987.53;5020430;28;20041;-74
2023/09/26 08:40:00;;;;;;;14.98;11.00;;;;;;;15.53;100.00;101987.53;4996669;28;20390;-73
2023/09/26 08:42:27;;;;;;;16.73;11.02;;;;;;;15.58;100.00;101986.38;5021429;28;20486;-74
2023/09/26 08:44:58;;;;;;;18.13;11.43;;;;;;;15.64;100.00;101982.84;5019362;28;20026;-74
2023/09/26 08:47:24;;;;;;;16.15;9.95;;;;;;;15.72;100.00;101986.56;5021489;28;22214;-73
2023/09/26 08:49:53;;;;;;;23.25;12.88;;;;;;;15.75;100.00;101991.44;5026613;28;20036;-73
2023/09/26 08:52:21;;;;;;;16.73;11.80;;;;;;;15.93;100.00;101988.78;5021195;28;20034;-72
2023/09/26 08:54:46;;;;;;;17.92;10.13;;;;;;;16.01;100.00;101976.38;5023463;28;20371;-73
2023/09/26 08:57:12;;;;;;;17.23;10.63;;;;;;;16.17;100.00;101978.97;5026926;28;20123;-72
2023/09/26 08:59:39;;;;;;;17.50;11.00;;;;;;;16.27;100.00;101974.56;5009425;28;20051;-75
2023/09/26 09:02:05;;;;;;;15.48;11.02;;;;;;;16.29;100.00;101972.19;5025574;28;20079;-74
2023/09/26 09:04:30;;;;;;;14.95;10.63;;;;;;;16.33;100.00;101973.03;5045623;28;20024;-73
2023/09/26 09:07:03;;;;;;;16.63;10.60;;;;;;;16.38;100.00;101969.00;5043720;28;20467;-73
2023/09/26 09:09:29;;;;;;;18.67;11.27;;;;;;;16.49;100.00;101972.75;5042558;28;20031;-74
2023/09/26 09:11:55;;;;;;;15.68;10.50;;;;;;;16.55;100.00;101976.00;5041717;28;20029;-73
2023/09/26 09:14:31;;;;;;;16.55;11.40;;;;;;;16.54;100.00;101972.38;5046006;28;20189;-73
2023/09/26 09:16:56;;;;;;;19.35;11.30;;;;;;;16.62;100.00;101973.25;5037328;28;20078;-73
2023/09/26 09:19:42;;;;;;;15.10;10.68;;;;;;;16.73;100.00;101968.47;5042687;28;20451;-74
2023/09/26 09:22:15;;;;;;;16.45;10.38;;;;;;;16.79;100.00;101977.38;5037630;28;20029;-74
2023/09/26 09:24:41;;;;;;;18.65;10.82;;;;;;;16.90;100.00;101961.31;5039909;28;20029;-73
2023/09/26 09:27:06;;;;;;;13.30;10.38;;;;;;;16.98;100.00;101970.66;5039585;28;20083;-74
2023/09/26 09:29:31;;;;;;;19.90;10.57;;;;;;;17.00;100.00;101952.09;5043641;28;20234;-74
2023/09/26 09:31:57;;;;;;;15.63;10.95;;;;;;;17.15;100.00;101952.97;5041152;28;20170;-74
2023/09/26 09:34:25;;;;;;;14.27;9.95;;;;;;;17.25;100.00;101952.19;5040343;28;20083;-74
2023/09/26 09:36:51;;;;;;;16.13;10.70;;;;;;;17.26;100.00;101953.81;5041035;28;20495;-74
2023/09/26 09:39:19;;;;;;;14.10;9.65;;;;;;;17.36;100.00;101957.91;5037796;28;20025;-74
2023/09/26 09:41:47;;;;;;;16.80;10.65;;;;;;;17.24;100.00;101953.44;5041402;28;20468;-74
2023/09/26 09:44:12;;;;;;;16.63;10.20;;;;;;;17.21;100.00;101951.38;5037768;28;20484;-74
2023/09/26 09:46:38;;;;;;;14.95;9.35;;;;;;;17.25;100.00;101948.56;5020985;28;20381;-74
2023/09/26 09:49:10;;;;;;;15.95;9.40;;;;;;;17.25;100.00;101955.03;5043827;28;20071;-74
2023/09/26 09:51:41;;;;;;;12.73;10.13;;;;;;;17.31;100.00;101946.16;5021262;28;20440;-74
2023/09/26 09:54:12;;;;;;;17.73;9.80;;;;;;;17.47;100.00;101950.25;5039933;28;20044;-74
2023/09/26 09:56:38;;;;;;;15.18;10.57;;;;;;;17.55;100.00;101944.63;5041262;28;20041;-74
2023/09/26 09:59:12;;;;;;;16.67;9.73;;;;;;;17.61;100.00;101940.19;5044405;28;20028;-75
2023/09/26 10:01:43;;;;;;;17.25;9.73;;;;;;;17.72;100.00;101931.72;5040535;28;20052;-73
2023/09/26 10:04:09;;;;;;;18.38;8.55;;;;;;;17.72;100.00;101931.72;5039861;28;20433;-74
2023/09/26 10:06:35;;;;;;;13.35;8.32;;;;;;;17.73;100.00;101934.16;5043850;28;20025;-74
2023/09/26 10:09:03;;;;;;;14.25;9.07;;;;;;;17.67;100.00;101939.38;5040825;28;20500;-77
2023/09/26 10:11:29;;;;;;;15.43;9.48;;;;;;;17.73;100.00;101941.81;5044939;28;20299;-77
2023/09/26 10:13:58;;;;;;;12.55;9.10;;;;;;;17.70;100.00;101942.63;5040462;28;20542;-76
2023/09/26 10:16:25;;;;;;;13.88;10.00;;;;;;;17.65;100.00;101938.97;5042504;28;20281;-75
2023/09/26 10:18:50;;;;;;;11.70;8.82;;;;;;;17.79;100.00;101941.03;5041727;28;20021;-76
2023/09/26 10:21:22;;;;;;;13.60;8.73;;;;;;;17.83;100.00;101926.91;5039646;28;20032;-76
2023/09/26 10:24:08;;;;;;;11.68;8.02;;;;;;;17.85;100.00;101930.13;5037030;28;20039;-75
2023/09/26 10:26:37;;;;;;;16.48;9.25;;;;;;;17.96;100.00;101935.81;5042821;28;20528;-75
2023/09/26 10:29:05;;;;;;;12.35;8.40;;;;;;;17.91;100.00;101948.34;5042461;28;20040;-76
2023/09/26 10:31:33;;;;;;;12.25;8.90;;;;;;;17.99;100.00;101941.47;5027082;28;20029;-75
2023/09/26 10:33:58;;;;;;;13.27;8.75;;;;;;;18.04;100.00;101938.22;5038091;28;20033;-75
2023/09/26 10:36:23;;;;;;;11.93;8.65;;;;;;;18.20;100.00;101934.22;5022460;28;20031;-75
2023/09/26 10:39:05;;;;;;;15.25;8.85;;;;;;;18.27;100.00;101940.66;5040917;28;20029;-75
2023/09/26 10:41:30;;;;;;;13.73;9.82;;;;;;;18.28;100.00;101938.66;5040810;28;20029;-76
2023/09/26 10:43:56;;;;;;;16.23;10.38;;;;;;;18.41;100.00;101937.03;5043059;28;20047;-75
2023/09/26 10:46:21;;;;;;;12.85;10.02;;;;;;;18.40;100.00;101932.56;5039177;28;20020;-77
2023/09/26 10:48:48;;;;;;;13.40;9.68;;;;;;;18.55;100.00;101938.22;5034983;28;20041;-76
2023/09/26 10:51:14;;;;;;;6.50;5.10;;;;;;;18.85;100.00;101938.59;5043553;28;20036;-77
2023/09/26 10:53:41;;;;;;;16.10;9.20;;;;;;;18.68;99.71;101942.25;5042108;28;20037;-77
2023/09/26 10:56:08;;;;;;;15.18;10.13;;;;;;;18.60;100.00;101926.47;5041559;28;20055;-77
2023/09/26 10:58:34;;;;;;;15.70;10.07;;;;;;;18.59;100.00;101927.66;5037733;28;20040;-76
2023/09/26 11:00:59;;;;;;;12.85;9.25;;;;;;;18.71;100.00;101927.25;5043014;28;20075;-78
2023/09/26 11:03:25;;;;;;;13.57;9.50;;;;;;;18.56;100.00;101922.81;5041460;28;20045;-77